Time;durP1;ratioP1;P1;durP2;ratioP2;P2;SDS_P1;SDS_P2;PMS_P1;PMS_P2;Temp;Humidity;BMP_temperature;BMP_pressure;BME280_temperature;BME280_humidity;BME280_pressure;Samples;Min_cycle;Max_cycle;Signal;HPM_P1;HPM_P2
2021/11/08 00:01:15;;;;;;;4.45;1.40;;;;;;;19.55;46.64;101945.03;5136421;27;20061;-69
2021/11/08 00:03:42;;;;;;;4.18;1.40;;;;;;;19.53;46.51;101949.56;5135932;27;20023;-68
2021/11/08 00:06:08;;;;;;;4.20;1.13;;;;;;;19.51;46.83;101943.56;5136587;27;20027;-69
2021/11/08 00:08:38;;;;;;;4.35;1.30;;;;;;;19.49;46.79;101944.63;5136812;27;20024;-68
2021/11/08 00:11:04;;;;;;;4.35;1.20;;;;;;;19.47;46.43;101944.75;5135430;27;20039;-67
2021/11/08 00:13:30;;;;;;;3.90;1.40;;;;;;;19.44;46.54;101941.44;5136533;27;20495;-68
2021/11/08 00:16:11;;;;;;;5.95;1.55;;;;;;;19.42;46.90;101941.53;5136537;27;20067;-68
2021/11/08 00:21:04;;;;;;;4.65;1.35;;;;;;;19.36;46.68;101940.19;5136325;27;20027;-68
2021/11/08 00:23:30;;;;;;;5.00;1.55;;;;;;;19.37;46.61;101955.06;5136431;27;20435;-68
2021/11/08 00:25:58;;;;;;;4.22;1.40;;;;;;;19.35;46.63;101950.88;5135394;27;20143;-69
2021/11/08 00:28:25;;;;;;;4.47;1.48;;;;;;;19.32;46.79;101945.78;5136266;27;20019;-68
2021/11/08 00:30:52;;;;;;;5.68;1.75;;;;;;;19.30;46.96;101955.63;5136116;27;20031;-68
2021/11/08 00:33:21;;;;;;;4.07;1.27;;;;;;;19.29;46.46;101951.28;5135259;27;20069;-68
2021/11/08 00:35:50;;;;;;;6.43;1.40;;;;;;;19.27;46.43;101951.41;5136316;27;20019;-68
2021/11/08 00:38:19;;;;;;;4.45;1.33;;;;;;;19.25;46.55;101945.38;5135027;27;20027;-68
2021/11/08 00:40:45;;;;;;;6.60;1.83;;;;;;;19.23;46.45;101949.06;5136189;27;20039;-68
2021/11/08 00:43:12;;;;;;;3.60;1.25;;;;;;;19.20;46.55;101950.97;5135184;27;20023;-68
2021/11/08 00:45:38;;;;;;;4.43;1.42;;;;;;;19.18;46.78;101950.25;5135075;27;20031;-68
2021/11/08 00:48:04;;;;;;;6.30;1.80;;;;;;;19.19;46.50;101951.06;5135843;27;20107;-68
2021/11/08 00:50:33;;;;;;;4.75;1.50;;;;;;;19.17;46.38;101953.81;5135934;27;20023;-67
2021/11/08 00:53:00;;;;;;;5.00;1.58;;;;;;;19.15;46.54;101950.44;5134713;27;20031;-67
2021/11/08 00:55:26;;;;;;;4.57;1.50;;;;;;;19.15;46.45;101952.22;5135638;27;20447;-67
2021/11/08 00:57:53;;;;;;;4.85;1.50;;;;;;;19.13;46.37;101957.63;5135600;27;20565;-69
2021/11/08 01:00:21;;;;;;;4.00;1.27;;;;;;;19.10;46.59;101952.53;5134587;27;20035;-68
2021/11/08 01:02:46;;;;;;;4.18;1.52;;;;;;;19.10;46.52;101959.63;5117164;27;20030;-68
2021/11/08 01:05:15;;;;;;;5.40;1.35;;;;;;;19.10;46.65;101959.63;5135452;27;20035;-68
2021/11/08 01:07:41;;;;;;;4.30;1.45;;;;;;;19.08;46.52;101966.81;5134604;27;20019;-68
2021/11/08 01:10:07;;;;;;;;;;;;;;;19.06;46.63;101972.22;5135217;27;20038;-68
2021/11/08 01:12:33;;;;;;;4.68;1.55;;;;;;;19.05;46.51;101969.66;5135255;27;19942;-68
2021/11/08 01:14:59;;;;;;;4.50;1.50;;;;;;;19.03;46.47;101970.59;5135156;27;20346;-68
2021/11/08 01:17:24;;;;;;;4.85;1.90;;;;;;;19.02;46.29;101968.06;5135885;27;20035;-68
2021/11/08 01:19:51;;;;;;;5.55;1.75;;;;;;;19.01;46.64;101969.88;5135451;27;20455;-68
2021/11/08 01:22:17;;;;;;;4.95;1.40;;;;;;;19.00;46.45;101964.69;5134829;27;20582;-69
2021/11/08 01:24:56;;;;;;;5.20;1.67;;;;;;;18.98;46.57;101967.44;5135370;27;20027;-68
2021/11/08 01:27:33;;;;;;;;;;;;;;;18.99;46.52;101968.28;5135867;27;20019;-68
2021/11/08 01:29:58;;;;;;;;;;;;;;;18.98;46.50;101978.00;5135208;27;19960;-68
2021/11/08 01:32:24;;;;;;;6.00;1.90;;;;;;;18.95;46.14;101975.56;5135497;27;19919;-68
2021/11/08 01:34:50;;;;;;;;;;;;;;;18.94;46.14;101973.84;5135077;27;19915;-68
2021/11/08 01:37:18;;;;;;;;;;;;;;;18.94;46.08;101987.06;5135001;27;20385;-68
2021/11/08 01:39:44;;;;;;;;;;;;;;;18.93;46.17;101971.31;5135344;27;19975;-68
2021/11/08 01:42:11;;;;;;;6.30;1.95;;;;;;;18.92;46.22;101980.22;5134250;27;19915;-68
2021/11/08 01:44:37;;;;;;;;;;;;;;;18.91;46.24;101971.41;5135191;27;20385;-68
2021/11/08 01:47:03;;;;;;;;;;;;;;;18.90;46.16;101969.75;5135170;27;19915;-68
2021/11/08 01:49:29;;;;;;;;;;;;;;;18.89;46.48;101959.28;5134613;27;20255;-68
2021/11/08 01:51:56;;;;;;;;;;;;;;;18.89;46.12;101968.03;5135288;27;19918;-68
2021/11/08 01:54:22;;;;;;;;;;;;;;;18.88;46.05;101962.88;5134888;27;19952;-68
2021/11/08 01:56:47;;;;;;;;;;;;;;;18.86;46.20;101962.97;5133874;27;19912;-68
2021/11/08 01:59:13;;;;;;;;;;;;;;;18.87;46.07;101969.94;5134876;27;19912;-68
2021/11/08 02:01:42;;;;;;;;;;;;;;;18.84;46.19;101968.34;5135161;27;20001;-68
2021/11/08 02:04:07;;;;;;;4.47;1.73;;;;;;;18.82;46.42;101967.59;5134479;27;20006;-68
2021/11/08 02:06:32;;;;;;;;;;;;;;;18.83;46.14;101964.00;5137444;27;19996;-68
2021/11/08 02:09:00;;;;;;;;;;;;;;;18.82;46.17;101964.94;5137167;27;19916;-68
2021/11/08 02:11:26;;;;;;;;;;;;;;;18.81;46.56;101965.88;5135798;27;19970;-68
2021/11/08 02:13:53;;;;;;;;;;;;;;;18.80;46.23;101965.97;5137067;27;19911;-68
2021/11/08 02:16:18;;;;;;;;;;;;;;;18.79;46.19;101970.44;5134640;27;19960;-67
2021/11/08 02:18:44;;;;;;;;;;;;;;;18.79;46.37;101975.72;5133875;27;19919;-67
2021/11/08 02:21:10;;;;;;;;;;;;;;;18.78;46.16;101971.38;5134504;27;19963;-68
2021/11/08 02:23:37;;;;;;;;;;;;;;;18.77;46.04;101972.34;5134552;27;19929;-68
2021/11/08 02:26:05;;;;;;;;;;;;;;;18.77;46.38;101967.06;5133732;27;19919;-68
2021/11/08 02:28:31;;;;;;;;;;;;;;;18.76;46.26;101969.78;5134587;27;19911;-68
2021/11/08 02:30:57;;;;;;;8.05;1.90;;;;;;;18.73;46.28;101962.91;5133252;27;20040;-68
2021/11/08 02:33:25;;;;;;;;;;;;;;;18.74;46.04;101964.59;5134382;27;20402;-67
2021/11/08 02:35:52;;;;;;;;;;;;;;;18.74;46.22;101971.66;5134403;27;19998;-68
2021/11/08 02:38:22;;;;;;;;;;;;;;;18.73;45.98;101978.75;5133527;27;19994;-68
2021/11/08 02:40:48;;;;;;;;;;;;;;;18.73;46.34;101977.91;5134725;27;19915;-68
2021/11/08 02:43:20;;;;;;;;;;;;;;;18.73;46.20;101977.91;5134165;27;19915;-68
2021/11/08 02:45:45;;;;;;;;;;;;;;;18.73;45.99;101977.91;5133674;27;19995;-68
2021/11/08 02:48:11;;;;;;;;;;;;;;;18.71;45.92;101974.50;5134037;27;19947;-67
2021/11/08 02:50:36;;;;;;;;;;;;;;;18.71;46.09;101982.44;5134133;27;19908;-68
2021/11/08 02:53:02;;;;;;;6.82;2.53;;;;;;;18.70;46.08;101983.41;5132864;27;20286;-68
2021/11/08 02:55:29;;;;;;;7.15;2.28;;;;;;;18.68;45.94;101981.69;5133834;27;20038;-68
2021/11/08 02:57:55;;;;;;;5.50;1.92;;;;;;;18.68;46.24;101980.84;5133758;27;20075;-68
2021/11/08 03:00:23;;;;;;;6.20;1.92;;;;;;;18.68;46.15;101976.41;5132660;27;20094;-68
2021/11/08 03:02:49;;;;;;;5.97;1.98;;;;;;;18.66;46.16;101974.84;5138554;27;20035;-69
2021/11/08 03:05:17;;;;;;;5.85;2.15;;;;;;;18.68;46.26;101978.22;5145134;27;20031;-69
2021/11/08 03:07:43;;;;;;;4.30;1.80;;;;;;;18.65;45.86;101976.59;5144349;27;20059;-69
2021/11/08 03:10:13;;;;;;;5.05;2.08;;;;;;;18.66;46.03;101977.47;5144572;27;20030;-69
2021/11/08 03:12:39;;;;;;;5.22;1.77;;;;;;;18.64;46.12;101974.94;5145269;28;20034;-69
2021/11/08 03:15:39;;;;;;;5.55;1.80;;;;;;;18.64;45.86;101971.44;5144018;28;20138;-69
2021/11/08 03:18:03;;;;;;;5.78;2.00;;;;;;;18.62;45.98;101984.72;5144035;28;20092;-69
2021/11/08 03:20:29;;;;;;;5.45;2.10;;;;;;;18.63;45.85;101982.97;5137526;28;20031;-69
2021/11/08 03:22:58;;;;;;;6.10;2.35;;;;;;;18.62;45.90;101978.63;5133857;28;20030;-69
2021/11/08 03:27:58;;;;;;;;;;;;;;;18.60;45.75;101993.72;5132879;28;20452;-69
2021/11/08 03:30:32;;;;;;;5.88;1.88;;;;;;;18.59;45.90;101989.38;5133971;28;19918;-69
2021/11/08 03:32:58;;;;;;;6.20;2.00;;;;;;;18.58;45.89;101991.19;5133554;28;20051;-69
2021/11/08 03:35:25;;;;;;;6.72;2.08;;;;;;;18.56;45.94;101987.75;5133095;28;20088;-69
2021/11/08 03:37:52;;;;;;;7.32;2.35;;;;;;;18.57;45.83;101993.91;5133417;28;20452;-69
2021/11/08 03:40:22;;;;;;;6.22;1.95;;;;;;;18.56;45.89;101994.84;5133130;28;20038;-68
2021/11/08 03:42:48;;;;;;;6.05;2.05;;;;;;;18.55;45.65;101999.28;5132631;28;20027;-69
2021/11/08 03:45:15;;;;;;;;;;;;;;;18.55;45.86;101995.78;5133403;28;20043;-69
2021/11/08 03:47:40;;;;;;;;;;;;;;;18.53;45.42;101987.13;5133592;28;20370;-69
2021/11/08 03:50:08;;;;;;;;;;;;;;;18.52;45.64;101993.34;5132691;28;19961;-69
2021/11/08 03:52:34;;;;;;;;;;;;;;;18.52;45.73;101991.56;5133388;28;19969;-68
2021/11/08 03:55:00;;;;;;;;;;;;;;;18.51;45.63;101991.66;5133208;28;19912;-69
2021/11/08 03:57:25;;;;;;;;;;;;;;;18.50;45.72;102004.03;5132746;28;19994;-69
2021/11/08 03:59:50;;;;;;;;;;;;;;;18.51;45.80;102002.22;5133753;28;19943;-69
2021/11/08 04:02:15;;;;;;;;;;;;;;;18.49;45.71;102005.81;5132626;28;19951;-68
2021/11/08 04:04:41;;;;;;;;;;;;;;;18.49;45.53;102010.25;5133527;28;19911;-68
2021/11/08 04:07:06;;;;;;;;;;;;;;;18.48;45.66;102001.50;5133204;28;20009;-68
2021/11/08 04:09:32;;;;;;;;;;;;;;;18.48;45.61;102003.25;5132715;28;19919;-68
2021/11/08 04:11:57;;;;;;;;;;;;;;;18.47;45.59;102007.69;5132780;28;20393;-68
2021/11/08 04:14:24;;;;;;;;;;;;;;;18.47;45.69;102010.34;5133279;28;19916;-68
2021/11/08 04:16:50;;;;;;;;;;;;;;;18.47;45.83;102022.72;5132679;28;20350;-68
2021/11/08 04:19:16;;;;;;;;;;;;;;;18.45;45.74;102014.88;5135054;27;20028;-68
2021/11/08 04:21:41;;;;;;;;;;;;;;;18.44;45.64;102013.19;5137157;27;19911;-69
2021/11/08 04:24:09;;;;;;;;;;;;;;;18.45;45.79;102017.53;5135882;27;19951;-68
2021/11/08 04:26:38;;;;;;;;;;;;;;;18.44;45.57;102014.97;5136843;27;20335;-69
2021/11/08 04:29:04;;;;;;;;;;;;;;;18.42;45.59;102009.78;5136806;27;19915;-69
2021/11/08 04:31:35;;;;;;;;;;;;;;;18.44;45.62;102018.47;5136127;27;19911;-68
2021/11/08 04:34:07;;;;;;;;;;;;;;;18.43;45.74;102019.38;5136549;27;19955;-69
2021/11/08 04:39:12;;;;;;;;;;;;;;;18.42;45.61;102008.94;5141433;27;19912;-68
2021/11/08 04:41:45;;;;;;;;;;;;;;;18.41;45.64;102007.25;5136775;27;20000;-69
2021/11/08 04:55:04;;;;;;;;;;;;;;;18.43;46.08;102019.38;5139304;27;19956;-69
2021/11/08 05:25:11;;;;;;;;;;;;;;;18.56;45.45;102039.72;5141252;27;19914;-69
2021/11/08 05:30:21;;;;;;;;;;;;;;;18.56;45.08;102048.50;5135809;27;19918;-68
2021/11/08 05:32:49;;;;;;;;;;;;;;;18.56;45.19;102045.00;5135568;27;19915;-69
2021/11/08 05:35:15;;;;;;;;;;;;;;;18.57;45.33;102052.00;5134598;27;20515;-69
2021/11/08 05:37:42;;;;;;;;;;;;;;;18.56;45.05;102045.00;5135873;27;19915;-69
2021/11/08 05:40:13;;;;;;;;;;;;;;;18.57;45.11;102049.34;5135397;27;19980;-68
2021/11/08 05:42:42;;;;;;;;;;;;;;;18.57;45.29;102054.63;5134753;27;19915;-70
2021/11/08 05:45:11;;;;;;;;;;;;;;;18.56;45.19;102048.50;5135178;27;19918;-68
2021/11/08 05:47:37;;;;;;;;;;;;;;;18.56;45.23;102055.56;5135427;27;19994;-68
2021/11/08 05:50:04;;;;;;;;;;;;;;;18.56;45.41;102055.56;5134389;27;19966;-68
2021/11/08 05:52:29;;;;;;;;;;;;;;;18.57;45.49;102058.13;5135568;27;19911;-68
2021/11/08 05:54:54;;;;;;;;;;;;;;;18.58;45.38;102054.53;5134683;27;20282;-69
2021/11/08 06:49:39;;;;;;;;;;;;;;;18.98;46.58;102107.44;5136639;27;19926;-67
2021/11/08 06:52:05;;;;;;;;;;;;;;;19.00;46.36;102105.53;5133123;27;19915;-66
2021/11/08 06:54:31;;;;;;;;;;;;;;;19.04;46.43;102111.47;5133971;27;19943;-68
2021/11/08 06:57:05;;;;;;;;;;;;;;;19.06;46.50;102109.59;5133934;27;20771;-65
2021/11/08 06:59:30;;;;;;;;;;;;;;;19.07;46.47;102102.50;5133453;27;19911;-68
2021/11/08 07:01:56;;;;;;;;;;;;;;;19.09;46.42;102114.69;5134099;27;19915;-68
2021/11/08 07:04:22;;;;;;;;;;;;;;;19.11;46.55;102118.06;5133915;27;20442;-69
2021/11/08 07:06:47;;;;;;;;;;;;;;;19.13;46.49;102110.88;5133121;27;20431;-69
2021/11/08 07:09:13;;;;;;;;;;;;;;;19.14;46.39;102112.59;5133822;27;19911;-70
2021/11/08 07:11:39;;;;;;;;;;;;;;;19.15;46.31;102116.06;5133892;27;19915;-69
2021/11/08 07:14:07;;;;;;;;;;;;;;;19.16;45.95;102115.97;5133096;28;19955;-70
2021/11/08 07:16:33;;;;;;;;;;;;;;;19.13;45.28;102124.09;5134244;28;19922;-69
2021/11/08 07:18:58;;;;;;;6.72;2.33;;;;;;;19.13;46.23;102118.81;5133364;28;19915;-69
2021/11/08 07:21:24;;;;;;;5.57;2.17;;;;;;;19.12;46.51;102122.41;5132883;28;20107;-69
2021/11/08 07:23:49;;;;;;;5.57;1.95;;;;;;;19.15;46.41;102127.50;5133605;28;20023;-69
2021/11/08 07:26:14;;;;;;;7.95;2.42;;;;;;;19.16;46.42;102133.63;5132403;28;20035;-72
2021/11/08 07:28:40;;;;;;;5.45;2.08;;;;;;;19.18;46.43;102123.78;5133399;28;20072;-70
2021/11/08 07:31:08;;;;;;;6.30;2.38;;;;;;;19.21;46.37;102137.63;5132881;28;20411;-71
2021/11/08 07:33:34;;;;;;;8.85;2.40;;;;;;;19.23;46.58;102145.47;5132527;28;20062;-71
2021/11/08 07:35:59;;;;;;;4.85;2.00;;;;;;;19.25;46.30;102135.66;5132702;28;20063;-72
2021/11/08 07:38:24;;;;;;;5.93;2.28;;;;;;;19.26;46.58;102144.44;5133464;28;20043;-72
2021/11/08 07:40:50;;;;;;;6.17;1.87;;;;;;;19.28;46.62;102145.16;5132903;28;20134;-71
2021/11/08 07:43:15;;;;;;;6.75;2.40;;;;;;;19.28;46.56;102139.88;5132811;28;20279;-71
2021/11/08 07:45:40;;;;;;;5.95;2.50;;;;;;;19.30;46.52;102145.94;5133049;28;20058;-72
2021/11/08 07:48:07;;;;;;;5.85;2.17;;;;;;;19.31;46.48;102148.47;5132104;28;20023;-71
2021/11/08 07:50:32;;;;;;;6.68;2.08;;;;;;;19.31;46.01;102152.91;5132988;28;20027;-71
2021/11/08 07:52:58;;;;;;;5.82;2.00;;;;;;;19.32;46.32;102159.91;5132727;27;20493;-71
2021/11/08 07:55:23;;;;;;;7.03;2.10;;;;;;;19.33;46.17;102153.66;5136445;27;20030;-72
2021/11/08 07:57:48;;;;;;;5.37;2.00;;;;;;;19.32;46.37;102150.16;5137160;27;20068;-73
2021/11/08 08:00:14;;;;;;;7.50;2.10;;;;;;;19.34;46.38;102163.28;5136746;27;20320;-69
2021/11/08 08:02:41;;;;;;;6.05;1.80;;;;;;;19.34;46.36;102161.50;5136356;27;20498;-71
2021/11/08 08:05:06;;;;;;;5.32;2.00;;;;;;;19.39;46.36;102162.03;5140491;27;20031;-73
2021/11/08 08:07:35;;;;;;;7.78;2.40;;;;;;;19.50;45.95;102163.09;5141144;27;20023;-72
2021/11/08 08:10:00;;;;;;;6.18;2.20;;;;;;;19.60;45.79;102171.28;5140376;27;20030;-71
2021/11/08 08:12:26;;;;;;;6.60;2.35;;;;;;;19.65;45.33;102170.03;5140533;27;20039;-72
2021/11/08 08:14:52;;;;;;;6.35;2.17;;;;;;;19.69;45.17;102174.19;5137059;27;20352;-71
2021/11/08 08:17:20;;;;;;;6.40;2.30;;;;;;;19.70;45.36;102172.38;5136204;27;20034;-73
2021/11/08 08:19:46;;;;;;;5.60;1.77;;;;;;;19.73;45.05;102175.66;5140079;27;20122;-70
2021/11/08 08:22:12;;;;;;;6.10;2.00;;;;;;;19.80;45.15;102183.19;5138743;27;20031;-73
2021/11/08 08:24:37;;;;;;;6.40;2.05;;;;;;;19.84;45.07;102177.59;5140843;27;20023;-72
2021/11/08 08:27:04;;;;;;;6.55;2.15;;;;;;;19.89;45.09;102170.19;5137918;27;20039;-75
2021/11/08 08:29:31;;;;;;;4.72;1.90;;;;;;;19.92;44.96;102183.22;5139300;27;20022;-72
2021/11/08 08:31:56;;;;;;;6.10;2.05;;;;;;;19.96;44.62;102183.00;5138304;27;20089;-71
2021/11/08 08:34:22;;;;;;;7.13;2.42;;;;;;;19.97;44.65;102187.38;5138325;27;20027;-73
2021/11/08 08:36:48;;;;;;;7.55;2.10;;;;;;;19.96;44.63;102183.84;5136964;27;20066;-74
2021/11/08 08:39:14;;;;;;;9.55;2.20;;;;;;;19.96;44.77;102189.13;5138478;27;20031;-75
2021/11/08 08:41:40;;;;;;;6.10;1.92;;;;;;;19.96;44.43;102193.59;5140234;27;20027;-67
2021/11/08 08:44:07;;;;;;;6.57;2.50;;;;;;;19.95;44.60;102198.06;5137043;27;20072;-72
2021/11/08 08:46:33;;;;;;;8.30;2.20;;;;;;;19.95;44.63;102200.69;5137999;27;20401;-73
2021/11/08 08:48:59;;;;;;;5.53;2.17;;;;;;;19.95;44.71;102195.41;5139669;27;20118;-70
2021/11/08 08:51:27;;;;;;;9.77;2.42;;;;;;;19.97;44.77;102211.19;5139677;27;20031;-74
2021/11/08 08:53:55;;;;;;;9.77;2.65;;;;;;;19.97;44.76;102214.66;5138805;27;20031;-71
2021/11/08 08:56:22;;;;;;;6.05;2.35;;;;;;;19.98;44.76;102211.06;5138241;27;20020;-67
2021/11/08 08:58:50;;;;;;;6.07;2.03;;;;;;;20.03;44.75;102218.69;5137191;27;20019;-69
2021/11/08 09:01:16;;;;;;;6.15;2.35;;;;;;;20.02;44.95;102222.28;5135766;27;20023;-70
2021/11/08 09:03:44;;;;;;;6.80;2.15;;;;;;;20.02;44.87;102227.59;5137517;27;20137;-68
2021/11/08 09:06:09;;;;;;;5.40;2.30;;;;;;;20.02;44.79;102239.00;5137686;27;20036;-67
2021/11/08 09:08:40;;;;;;;8.02;2.25;;;;;;;20.02;44.92;102236.34;5135975;27;20091;-70
2021/11/08 09:11:06;;;;;;;7.82;2.28;;;;;;;20.03;45.20;102234.59;5134328;27;20044;-69
2021/11/08 09:13:32;;;;;;;8.77;2.20;;;;;;;20.03;44.94;102239.88;5134930;27;20559;-69
2021/11/08 09:15:57;;;;;;;6.72;2.15;;;;;;;20.01;45.37;102247.03;5135159;27;20031;-70
2021/11/08 09:18:23;;;;;;;5.25;1.85;;;;;;;20.00;45.37;102242.72;5135816;27;20122;-71
2021/11/08 09:20:49;;;;;;;5.75;2.30;;;;;;;19.99;45.38;102235.72;5135115;27;20015;-69
2021/11/08 09:23:15;;;;;;;8.85;2.40;;;;;;;19.98;45.36;102231.38;5135479;27;20068;-68
2021/11/08 09:25:43;;;;;;;5.80;2.05;;;;;;;19.99;45.43;102239.22;5135645;27;20023;-72
2021/11/08 09:28:09;;;;;;;5.97;2.15;;;;;;;19.99;45.62;102251.59;5134916;27;20080;-69
2021/11/08 09:30:42;;;;;;;9.65;2.22;;;;;;;19.99;45.44;102251.59;5135351;27;20451;-67
2021/11/08 09:33:08;;;;;;;5.00;1.98;;;;;;;19.98;45.49;102245.47;5134115;27;20393;-67
2021/11/08 09:35:37;;;;;;;7.82;2.05;;;;;;;19.97;45.64;102245.56;5135284;27;20049;-67
2021/11/08 09:38:06;;;;;;;8.27;2.20;;;;;;;19.94;45.73;102243.97;5134856;27;20034;-67
2021/11/08 09:40:34;;;;;;;6.97;2.25;;;;;;;19.94;45.66;102243.97;5134366;27;20023;-68
2021/11/08 09:43:00;;;;;;;7.53;2.42;;;;;;;19.93;45.67;102245.78;5133853;27;20482;-70
2021/11/08 09:45:26;;;;;;;6.28;2.08;;;;;;;19.92;45.51;102237.94;5135414;27;20031;-71
2021/11/08 09:47:51;;;;;;;6.20;2.13;;;;;;;19.91;45.82;102236.25;5134384;27;20076;-69
2021/11/08 09:50:21;;;;;;;6.60;2.50;;;;;;;19.91;45.61;102237.06;5135304;27;20030;-68
2021/11/08 09:52:48;;;;;;;8.40;2.20;;;;;;;19.94;45.50;102231.56;5134680;27;20470;-70
2021/11/08 09:55:20;;;;;;;6.90;2.22;;;;;;;19.93;45.69;102231.69;5134225;27;20039;-69
2021/11/08 09:57:46;;;;;;;7.88;2.08;;;;;;;19.90;45.64;102234.53;5134857;27;20151;-69
2021/11/08 10:00:37;;;;;;;5.10;2.03;;;;;;;19.88;45.71;102231.16;5134950;27;20034;-74
2021/11/08 10:03:11;;;;;;;7.50;2.20;;;;;;;19.88;45.87;102229.34;5119314;27;20130;-70
2021/11/08 10:05:45;;;;;;;7.53;2.15;;;;;;;19.91;45.94;102237.06;5135967;27;20034;-68
2021/11/08 10:08:11;;;;;;;;;;;;;;;19.90;45.90;102230.09;5134262;27;20047;-69
2021/11/08 10:10:39;;;;;;;7.95;2.22;;;;;;;19.95;45.87;102237.75;5135675;27;19922;-69
2021/11/08 10:13:14;;;;;;;4.43;1.40;;;;;;;20.00;45.77;102234.78;5134435;27;20102;-70
2021/11/08 10:15:46;;;;;;;6.28;2.13;;;;;;;19.99;45.63;102236.56;5133761;27;20127;-73
2021/11/08 10:18:12;;;;;;;7.15;2.05;;;;;;;19.98;45.77;102228.72;5133996;27;20023;-72
2021/11/08 10:20:42;;;;;;;6.55;2.08;;;;;;;20.04;45.46;102230.97;5134372;27;20026;-71
2021/11/08 10:23:11;;;;;;;7.80;2.13;;;;;;;20.05;45.77;102233.50;5133581;27;20039;-68
2021/11/08 10:25:39;;;;;;;5.43;1.98;;;;;;;20.06;45.76;102231.69;5133691;27;20475;-64
2021/11/08 10:28:10;;;;;;;7.35;1.90;;;;;;;20.04;45.69;102223.03;5134239;27;20052;-67
2021/11/08 10:30:37;;;;;;;5.28;1.80;;;;;;;20.01;45.89;102234.69;5133579;27;20500;-68
2021/11/08 10:33:12;;;;;;;5.65;1.98;;;;;;;20.02;45.84;102228.41;5137436;27;20027;-70
2021/11/08 10:35:41;;;;;;;6.07;2.10;;;;;;;20.03;45.84;102229.28;5136992;27;20093;-68
2021/11/08 10:38:32;;;;;;;7.30;2.20;;;;;;;20.02;45.82;102227.59;5133443;27;20031;-70
2021/11/08 10:41:21;;;;;;;6.38;2.30;;;;;;;19.98;45.97;102223.44;5133821;27;20072;-69
2021/11/08 10:44:07;;;;;;;5.75;1.77;;;;;;;19.98;45.71;102223.44;5133340;27;20458;-72
2021/11/08 10:46:35;;;;;;;6.38;2.20;;;;;;;20.00;45.91;102229.50;5134436;27;20478;-73
2021/11/08 10:49:24;;;;;;;7.53;2.50;;;;;;;19.98;45.95;102231.38;5134295;27;20023;-71
2021/11/08 10:51:57;;;;;;;5.80;2.47;;;;;;;19.96;45.81;102235.94;5133980;27;20037;-71
2021/11/08 10:54:28;;;;;;;5.28;2.13;;;;;;;19.95;45.87;102227.16;5134666;27;20141;-70
2021/11/08 10:57:11;;;;;;;7.65;2.08;;;;;;;19.97;45.93;102229.69;5134529;27;20033;-70
2021/11/08 10:59:44;;;;;;;6.40;2.10;;;;;;;19.96;45.88;102228.00;5134063;27;20054;-68
2021/11/08 11:02:14;;;;;;;7.53;2.17;;;;;;;19.96;46.08;102231.47;5133655;27;20353;-68
2021/11/08 11:04:45;;;;;;;7.63;2.28;;;;;;;19.98;45.86;102231.38;5133178;27;20043;-66
2021/11/08 11:07:22;;;;;;;8.32;2.45;;;;;;;19.98;45.86;102231.38;5134015;27;20469;-67
2021/11/08 11:09:59;;;;;;;6.30;1.83;;;;;;;20.00;45.93;102234.78;5137061;27;20034;-65
2021/11/08 11:12:27;;;;;;;9.98;2.00;;;;;;;19.99;45.86;102230.44;5134183;27;20042;-70
2021/11/08 11:14:59;;;;;;;7.85;2.03;;;;;;;19.99;45.94;102228.63;5135709;27;20035;-69
2021/11/08 11:17:29;;;;;;;8.73;2.17;;;;;;;19.96;45.81;102230.63;5133693;28;20027;-70
2021/11/08 11:20:09;;;;;;;6.35;1.92;;;;;;;19.98;46.01;102226.94;5136567;28;20110;-70
2021/11/08 11:22:43;;;;;;;9.98;1.83;;;;;;;20.02;45.82;102222.28;5137841;28;20026;-70
2021/11/08 11:25:11;;;;;;;7.50;2.03;;;;;;;20.06;46.09;102227.28;5135975;28;20023;-70
2021/11/08 11:27:48;;;;;;;4.75;1.67;;;;;;;20.14;45.90;102226.75;5138869;27;20106;-70
2021/11/08 11:30:22;;;;;;;6.82;1.70;;;;;;;20.21;45.79;102222.72;5142696;27;20023;-68
2021/11/08 11:33:04;;;;;;;5.00;1.80;;;;;;;20.27;46.08;102230.25;5137551;27;20043;-68
2021/11/08 11:35:33;;;;;;;4.97;1.57;;;;;;;20.27;45.84;102224.94;5137434;27;20470;-64
2021/11/08 11:38:02;;;;;;;7.22;1.88;;;;;;;20.26;46.05;102219.75;5137276;27;20037;-65
2021/11/08 11:40:30;;;;;;;6.65;2.30;;;;;;;20.21;45.99;102216.59;5136733;27;20062;-64
2021/11/08 11:43:02;;;;;;;6.38;2.30;;;;;;;20.18;46.12;102220.28;5137776;27;20045;-67
2021/11/08 11:45:41;;;;;;;5.45;1.80;;;;;;;20.22;46.12;102215.63;5137795;27;20023;-67
2021/11/08 11:48:06;;;;;;;6.43;1.77;;;;;;;20.26;46.29;102219.75;5136902;27;20019;-68
2021/11/08 11:50:34;;;;;;;7.18;1.90;;;;;;;20.29;45.99;102223.03;5137703;27;20019;-69
2021/11/08 11:53:02;;;;;;;5.63;2.00;;;;;;;20.33;45.90;102229.00;5137397;27;20036;-64
2021/11/08 11:55:28;;;;;;;5.95;2.10;;;;;;;20.36;45.74;102236.72;5137469;27;20031;-66
2021/11/08 11:57:56;;;;;;;5.55;2.22;;;;;;;20.38;45.71;102239.28;5137336;27;20031;-68
2021/11/08 12:00:25;;;;;;;7.75;2.17;;;;;;;20.37;45.68;102241.03;5138455;27;20519;-66
2021/11/08 12:02:51;;;;;;;5.78;1.98;;;;;;;20.41;45.59;102234.59;5137413;27;20030;-66
2021/11/08 12:05:21;;;;;;;8.23;2.03;;;;;;;20.42;45.50;102225.69;5137819;27;20057;-65
2021/11/08 12:07:54;;;;;;;6.43;1.92;;;;;;;20.43;45.44;102230.03;5136697;27;20015;-64
2021/11/08 12:10:20;;;;;;;7.78;2.13;;;;;;;20.45;45.44;102229.94;5137484;27;20079;-66
2021/11/08 12:12:45;;;;;;;6.85;2.20;;;;;;;20.44;45.32;102226.44;5138982;27;20039;-68
2021/11/08 12:15:12;;;;;;;6.30;2.05;;;;;;;20.44;45.52;102220.28;5137535;27;20030;-69
2021/11/08 12:17:47;;;;;;;6.32;2.50;;;;;;;20.42;45.47;102224.84;5137192;27;20026;-67
2021/11/08 12:20:18;;;;;;;6.07;1.80;;;;;;;20.36;45.43;102214.69;5137635;27;20019;-71
2021/11/08 12:22:44;;;;;;;6.03;2.00;;;;;;;20.38;45.63;102223.38;5136103;27;20493;-67
2021/11/08 12:25:20;;;;;;;6.50;1.98;;;;;;;20.35;45.49;102215.66;5136539;27;20026;-70
2021/11/08 12:27:54;;;;;;;5.20;1.52;;;;;;;20.30;45.57;102219.44;5136697;27;20039;-70
2021/11/08 12:30:32;;;;;;;7.88;2.13;;;;;;;20.26;45.37;102227.69;5135888;27;20074;-72
2021/11/08 12:33:01;;;;;;;6.88;2.08;;;;;;;20.21;45.39;102220.06;5136463;27;20088;-72
2021/11/08 12:35:33;;;;;;;8.43;1.90;;;;;;;20.20;45.78;102231.63;5136529;27;20054;-68
2021/11/08 12:37:59;;;;;;;7.80;2.30;;;;;;;20.14;45.94;102233.84;5135091;27;20097;-68
2021/11/08 12:40:32;;;;;;;5.68;1.88;;;;;;;20.09;45.86;102223.56;5135301;27;20035;-68
2021/11/08 12:42:59;;;;;;;7.18;2.17;;;;;;;20.07;45.92;102225.47;5135137;27;20110;-68
2021/11/08 12:45:28;;;;;;;5.28;1.83;;;;;;;20.05;46.02;102224.72;5136073;27;20035;-68
2021/11/08 12:48:07;;;;;;;6.30;2.13;;;;;;;20.01;46.06;102221.44;5136038;27;20029;-67
2021/11/08 12:50:39;;;;;;;6.40;1.80;;;;;;;19.98;45.98;102219.00;5135046;27;20023;-67
2021/11/08 12:53:24;;;;;;;5.40;1.88;;;;;;;19.94;45.88;102213.06;5135570;27;20106;-67
2021/11/08 12:55:50;;;;;;;6.15;2.00;;;;;;;19.94;46.07;102217.50;5135666;27;20455;-68
2021/11/08 12:58:15;;;;;;;7.03;1.83;;;;;;;19.89;45.63;102201.94;5134543;27;20031;-67
2021/11/08 13:00:49;;;;;;;4.97;1.73;;;;;;;19.90;45.85;102197.50;5135485;27;20035;-67
2021/11/08 13:03:15;;;;;;;6.30;1.83;;;;;;;19.88;45.77;102197.59;5135603;27;20102;-67
2021/11/08 13:05:46;;;;;;;5.80;1.90;;;;;;;19.88;45.47;102199.41;5135357;27;20076;-67
2021/11/08 13:08:24;;;;;;;5.80;1.90;;;;;;;19.90;46.18;102206.28;5135574;27;20106;-69
2021/11/08 13:11:10;;;;;;;6.72;1.80;;;;;;;19.88;45.92;102197.59;5135035;27;20118;-69
2021/11/08 13:13:36;;;;;;;6.20;2.58;;;;;;;19.89;46.10;102191.38;5135673;27;20063;-69
2021/11/08 13:16:11;;;;;;;7.35;1.90;;;;;;;19.92;46.00;102201.75;5135555;27;20062;-69
2021/11/08 13:18:40;;;;;;;6.28;1.73;;;;;;;19.94;46.03;102191.88;5135061;27;20059;-69
2021/11/08 13:21:07;;;;;;;5.68;1.40;;;;;;;19.98;45.73;102196.97;5135372;27;20030;-69
2021/11/08 13:23:35;;;;;;;4.63;1.90;;;;;;;20.03;45.72;102193.09;5135291;27;20035;-69
2021/11/08 13:26:01;;;;;;;4.60;1.48;;;;;;;20.08;45.52;102187.47;5133781;27;20023;-69
2021/11/08 13:28:31;;;;;;;6.22;1.80;;;;;;;20.16;45.47;102194.91;5134987;27;20080;-68
2021/11/08 13:30:59;;;;;;;5.40;1.98;;;;;;;20.19;45.39;102199.97;5134696;27;20054;-69